Ardsley On Hudson, New York
Current Conditions -  °F | °C
As of 10:56 AM on Tuesday 21 Oct 2014 (Local Time) from KHPN Reporting Station
Broken Clouds Broken Clouds  
Wind Chill: 16°   Ceiling: 7500
Heat Index: 16°   Visibility: 10mi
Dew Point:   Wind: 7mph
Humidity: 64%   Direction: 110°ESE
Pressure: 29.89"   Gusts: NA
Location:  41.02°N, 73.87°W
Report Text: KHPN 211456Z 11006KT 10SM BKN075 16/09 A2989 RMK AO2 SLP123 T01610094 58002
Loading
Personal Weather Stations






























Interactive Weather Map
Tropical Storm Tracking
New forecast layout! Learn more

10-Day Weather Forecast

Advertisements
Track Severe Weather on mobile